Time;durP1;ratioP1;P1;durP2;ratioP2;P2;SDS_P1;SDS_P2;PMS_P1;PMS_P2;Temp;Humidity;BMP_temperature;BMP_pressure;BME280_temperature;BME280_humidity;BME280_pressure;Samples;Min_cycle;Max_cycle;Signal;HPM_P1;HPM_P2
2023/07/30 00:00:41;;;;;;;15.75;3.92;;;;;;;;;;5226754;28;20088;-70
2023/07/30 00:03:11;;;;;;;11.30;3.25;;;;;;;;;;5226881;28;20029;-70
2023/07/30 00:05:41;;;;;;;12.23;3.55;;;;;;;;;;5226430;28;20028;-70
2023/07/30 00:08:12;;;;;;;10.52;3.92;;;;;;;;;;5226453;28;20117;-70
2023/07/30 00:10:42;;;;;;;11.65;4.13;;;;;;;;;;5226090;28;20025;-70
2023/07/30 00:13:13;;;;;;;16.25;4.03;;;;;;;;;;5226629;28;20078;-71
2023/07/30 00:15:45;;;;;;;15.32;3.20;;;;;;;;;;5226066;28;20021;-70
2023/07/30 00:18:16;;;;;;;11.80;3.33;;;;;;;;;;5226391;28;20087;-70
2023/07/30 00:20:46;;;;;;;11.73;3.53;;;;;;;;;;5226144;28;20483;-71
2023/07/30 00:23:17;;;;;;;15.90;4.50;;;;;;;;;;5226067;28;20155;-70
2023/07/30 00:25:47;;;;;;;13.43;3.53;;;;;;;;;;5226164;28;20032;-70
2023/07/30 00:28:17;;;;;;;14.32;3.65;;;;;;;;;;5225880;28;20052;-70
2023/07/30 00:30:47;;;;;;;20.75;4.07;;;;;;;;;;5215416;28;20536;-71
2023/07/30 00:33:18;;;;;;;11.98;3.75;;;;;;;;;;5223335;28;20132;-71
2023/07/30 00:35:50;;;;;;;13.80;3.80;;;;;;;;;;5225560;28;20020;-71
2023/07/30 00:38:20;;;;;;;16.50;4.03;;;;;;;;;;5225940;28;20025;-70
2023/07/30 00:40:51;;;;;;;19.65;4.32;;;;;;;;;;5226103;28;20025;-70
2023/07/30 00:43:21;;;;;;;13.75;4.25;;;;;;;;;;5226045;28;20036;-70
2023/07/30 00:45:51;;;;;;;17.33;3.63;;;;;;;;;;5225253;28;20029;-71
2023/07/30 00:48:22;;;;;;;13.05;3.55;;;;;;;;;;5226137;28;20103;-71
2023/07/30 00:50:52;;;;;;;13.50;3.65;;;;;;;;;;5226220;28;20025;-71
2023/07/30 00:53:23;;;;;;;11.50;4.57;;;;;;;;;;5226414;28;20188;-71
2023/07/30 00:55:53;;;;;;;19.25;4.07;;;;;;;;;;5224926;28;20033;-71
2023/07/30 00:58:24;;;;;;;17.73;4.03;;;;;;;;;;5225780;28;20391;-71
2023/07/30 01:00:54;;;;;;;23.55;4.07;;;;;;;;;;5225679;28;20067;-71
2023/07/30 01:03:25;;;;;;;13.98;4.00;;;;;;;;;;5226232;28;20021;-71
2023/07/30 01:05:56;;;;;;;18.92;3.85;;;;;;;;;;5225487;28;20067;-71
2023/07/30 01:08:26;;;;;;;19.48;4.10;;;;;;;;;;5225871;28;20112;-71
2023/07/30 01:10:57;;;;;;;18.23;3.53;;;;;;;;;;5224985;28;20032;-70
2023/07/30 01:13:29;;;;;;;17.00;3.67;;;;;;;;;;5225545;28;20043;-70
2023/07/30 01:15:59;;;;;;;14.75;3.47;;;;;;;;;;5225541;28;20444;-70
2023/07/30 01:18:30;;;;;;;15.55;3.53;;;;;;;;;;5225435;28;20032;-70
2023/07/30 01:21:00;;;;;;;19.52;3.80;;;;;;;;;;5225557;28;20029;-70
2023/07/30 01:23:30;;;;;;;18.40;3.60;;;;;;;;;;5224757;28;20036;-70
2023/07/30 01:26:03;;;;;;;21.98;4.35;;;;;;;;;;5224937;28;20485;-71
2023/07/30 01:28:37;;;;;;;11.90;4.07;;;;;;;;;;5225354;28;20029;-70
2023/07/30 01:31:08;;;;;;;11.25;3.78;;;;;;;;;;5225173;28;20382;-71
2023/07/30 01:33:39;;;;;;;17.02;4.07;;;;;;;;;;5225812;28;20028;-71
2023/07/30 01:36:12;;;;;;;11.18;3.70;;;;;;;;;;5224420;28;20020;-71
2023/07/30 01:38:43;;;;;;;21.67;4.47;;;;;;;;;;5224936;28;20406;-70
2023/07/30 01:41:13;;;;;;;12.02;3.17;;;;;;;;;;5225046;28;20024;-71
2023/07/30 01:43:43;;;;;;;13.70;3.58;;;;;;;;;;5225016;28;20032;-71
2023/07/30 01:46:13;;;;;;;12.18;3.53;;;;;;;;;;5224426;28;20025;-71
2023/07/30 01:48:44;;;;;;;14.30;4.47;;;;;;;;;;5224742;28;20113;-71
2023/07/30 01:51:14;;;;;;;15.18;3.88;;;;;;;;;;5224793;28;20378;-71
2023/07/30 01:53:45;;;;;;;14.57;3.67;;;;;;;;;;5224937;28;20024;-71
2023/07/30 01:56:15;;;;;;;16.08;4.50;;;;;;;;;;5224043;28;20049;-70
2023/07/30 01:58:45;;;;;;;18.60;4.15;;;;;;;;;;5223893;28;20436;-71
2023/07/30 02:01:16;;;;;;;20.92;3.83;;;;;;;;;;5224574;28;20025;-70
2023/07/30 02:03:46;;;;;;;23.50;3.97;;;;;;;;;;5224292;28;20037;-71
2023/07/30 02:06:16;;;;;;;16.65;4.30;;;;;;;;;;5224031;28;20123;-71
2023/07/30 02:08:47;;;;;;;23.45;4.13;;;;;;;;;;5223993;28;20482;-71
2023/07/30 02:11:18;;;;;;;15.85;3.67;;;;;;;;;;5223783;28;20078;-71
2023/07/30 02:13:49;;;;;;;22.48;3.90;;;;;;;;;;5224077;28;20071;-70
2023/07/30 02:16:19;;;;;;;19.40;4.03;;;;;;;;;;5223778;28;20027;-71
2023/07/30 02:18:49;;;;;;;22.48;3.92;;;;;;;;;;5223691;28;20029;-71
2023/07/30 02:21:20;;;;;;;26.42;4.82;;;;;;;;;;5224078;28;20394;-71
2023/07/30 02:23:50;;;;;;;20.80;3.88;;;;;;;;;;5223467;28;20474;-71
2023/07/30 02:26:21;;;;;;;15.95;3.63;;;;;;;;;;5223629;28;20074;-71
2023/07/30 02:28:51;;;;;;;13.70;3.30;;;;;;;;;;5223802;28;20029;-71
2023/07/30 02:31:22;;;;;;;18.40;3.33;;;;;;;;;;5223849;28;20045;-71
2023/07/30 02:33:52;;;;;;;18.55;3.67;;;;;;;;;;5223837;28;20048;-71
2023/07/30 02:36:23;;;;;;;19.52;3.40;;;;;;;;;;5222791;28;20699;-71
2023/07/30 02:38:53;;;;;;;24.52;3.88;;;;;;;;;;5223591;28;20032;-71
2023/07/30 02:41:23;;;;;;;17.08;3.42;;;;;;;;;;5223753;28;20425;-71
2023/07/30 02:43:54;;;;;;;20.08;4.28;;;;;;;;;;5223952;28;20059;-71
2023/07/30 02:46:24;;;;;;;17.45;4.07;;;;;;;;;;5223059;28;20025;-71
2023/07/30 02:48:54;;;;;;;17.98;3.10;;;;;;;;;;5222845;28;20033;-71
2023/07/30 02:51:24;;;;;;;18.85;3.80;;;;;;;;;;5223572;28;20467;-71
2023/07/30 02:53:57;;;;;;;20.15;5.03;;;;;;;;;;5223467;28;20036;-70
2023/07/30 02:56:27;;;;;;;15.25;3.50;;;;;;;;;;5223193;28;20390;-71
2023/07/30 02:58:58;;;;;;;23.73;4.68;;;;;;;;;;5223640;28;20021;-70
2023/07/30 03:01:28;;;;;;;27.33;4.20;;;;;;;;;;5223129;28;20484;-71
2023/07/30 03:03:59;;;;;;;18.30;4.78;;;;;;;;;;5223259;28;20513;-71
2023/07/30 03:06:29;;;;;;;17.63;3.95;;;;;;;;;;5223062;28;20028;-71
2023/07/30 03:08:59;;;;;;;22.73;4.15;;;;;;;;;;5223111;28;20025;-71
2023/07/30 03:11:29;;;;;;;14.35;3.47;;;;;;;;;;5223164;28;20085;-71
2023/07/30 03:14:00;;;;;;;16.35;3.45;;;;;;;;;;5223027;28;20021;-71
2023/07/30 03:16:30;;;;;;;16.77;2.97;;;;;;;;;;5222998;28;20478;-70
2023/07/30 03:19:01;;;;;;;20.15;4.53;;;;;;;;;;5223277;28;20096;-71
2023/07/30 03:21:31;;;;;;;17.70;3.13;;;;;;;;;;5223203;28;20028;-71
2023/07/30 03:24:01;;;;;;;21.02;4.15;;;;;;;;;;5223201;28;20025;-71
2023/07/30 03:26:31;;;;;;;22.33;4.10;;;;;;;;;;5225695;28;20719;-71
2023/07/30 03:29:02;;;;;;;14.40;3.85;;;;;;;;;;5227349;28;20025;-71
2023/07/30 03:31:32;;;;;;;19.67;3.85;;;;;;;;;;5227220;28;20024;-71
2023/07/30 03:34:02;;;;;;;17.40;3.63;;;;;;;;;;5227410;28;20099;-71
2023/07/30 03:36:33;;;;;;;19.33;3.38;;;;;;;;;;5226381;28;20040;-71
2023/07/30 03:39:03;;;;;;;18.40;3.67;;;;;;;;;;5226968;28;20059;-70
2023/07/30 03:41:35;;;;;;;16.20;3.38;;;;;;;;;;5227291;28;20024;-71
2023/07/30 03:44:06;;;;;;;21.55;3.00;;;;;;;;;;5226998;28;20043;-71
2023/07/30 03:46:36;;;;;;;22.77;3.22;;;;;;;;;;5226591;28;20024;-71
2023/07/30 03:49:07;;;;;;;22.30;3.38;;;;;;;;;;5226409;28;20017;-71
2023/07/30 03:51:38;;;;;;;25.95;3.45;;;;;;;;;;5227128;28;20009;-71
2023/07/30 03:54:09;;;;;;;12.57;2.58;;;;;;;;;;5226656;28;20110;-70
2023/07/30 03:56:39;;;;;;;22.70;3.60;;;;;;;;;;5226518;28;20017;-71
2023/07/30 03:59:09;;;;;;;22.48;3.95;;;;;;;;;;5226542;28;20083;-71
2023/07/30 04:01:39;;;;;;;21.23;3.85;;;;;;;;;;5226488;28;20017;-71
2023/07/30 04:04:10;;;;;;;27.65;3.90;;;;;;;;;;5226408;28;20474;-71
2023/07/30 04:06:40;;;;;;;23.58;3.58;;;;;;;;;;5226206;28;20470;-71
2023/07/30 04:09:10;;;;;;;26.40;3.20;;;;;;;;;;5226133;28;20021;-71
2023/07/30 04:11:41;;;;;;;26.65;3.83;;;;;;;;;;5226589;28;20060;-71
2023/07/30 04:14:11;;;;;;;13.57;2.78;;;;;;;;;;5226264;28;20024;-71
2023/07/30 04:16:43;;;;;;;23.00;3.25;;;;;;;;;;5225771;28;20386;-71
2023/07/30 04:19:14;;;;;;;19.05;3.00;;;;;;;;;;5226291;28;20032;-72
2023/07/30 04:21:44;;;;;;;27.95;3.75;;;;;;;;;;5226455;28;20429;-72
2023/07/30 04:24:14;;;;;;;18.15;3.45;;;;;;;;;;5226181;28;20096;-71
2023/07/30 04:26:44;;;;;;;26.75;5.35;;;;;;;;;;5225432;28;20025;-71
2023/07/30 04:29:16;;;;;;;20.70;3.85;;;;;;;;;;5226111;28;20390;-72
2023/07/30 04:31:46;;;;;;;22.02;3.35;;;;;;;;;;5225979;28;20025;-71
2023/07/30 04:34:16;;;;;;;22.05;3.80;;;;;;;;;;5226131;28;20043;-72
2023/07/30 04:36:47;;;;;;;25.38;3.83;;;;;;;;;;5225078;28;20021;-71
2023/07/30 04:39:17;;;;;;;19.50;3.92;;;;;;;;;;5225585;28;20009;-71
2023/07/30 04:41:47;;;;;;;18.60;3.83;;;;;;;;;;5226229;28;20107;-71
2023/07/30 04:44:18;;;;;;;27.42;4.47;;;;;;;;;;5225891;28;20120;-71
2023/07/30 04:46:48;;;;;;;21.40;3.88;;;;;;;;;;5225471;28;20489;-71
2023/07/30 04:49:18;;;;;;;15.15;3.08;;;;;;;;;;5225720;28;20108;-71
2023/07/30 04:51:48;;;;;;;19.50;3.50;;;;;;;;;;5225898;28;20013;-71
2023/07/30 04:54:19;;;;;;;26.15;3.75;;;;;;;;;;5225739;28;20025;-71
2023/07/30 04:56:49;;;;;;;23.58;4.13;;;;;;;;;;5224306;28;20021;-70
2023/07/30 04:59:19;;;;;;;19.52;3.28;;;;;;;;;;5225442;28;20082;-71
2023/07/30 05:01:50;;;;;;;29.05;3.83;;;;;;;;;;5225826;28;20021;-72
2023/07/30 05:04:20;;;;;;;23.08;3.15;;;;;;;;;;5225076;28;20453;-71
2023/07/30 05:06:50;;;;;;;24.77;3.70;;;;;;;;;;5225032;28;20036;-71
2023/07/30 05:09:21;;;;;;;18.63;3.60;;;;;;;;;;5225306;28;20097;-71
2023/07/30 05:11:51;;;;;;;28.38;4.95;;;;;;;;;;5225450;28;20100;-71
2023/07/30 05:14:22;;;;;;;23.25;4.13;;;;;;;;;;5225418;28;20013;-71
2023/07/30 05:16:52;;;;;;;21.90;4.85;;;;;;;;;;5224444;28;20332;-71
2023/07/30 05:19:22;;;;;;;34.58;4.63;;;;;;;;;;5225266;28;20446;-71
2023/07/30 05:21:53;;;;;;;21.67;4.97;;;;;;;;;;5225115;28;20036;-71
2023/07/30 05:24:23;;;;;;;19.75;4.05;;;;;;;;;;5225174;28;20031;-71
2023/07/30 05:26:53;;;;;;;21.45;4.55;;;;;;;;;;5224942;28;20021;-71
2023/07/30 05:29:23;;;;;;;18.02;3.75;;;;;;;;;;5225120;28;20024;-71
2023/07/30 05:31:54;;;;;;;20.88;3.60;;;;;;;;;;5225084;28;20654;-71
2023/07/30 05:34:24;;;;;;;22.75;3.70;;;;;;;;;;5224793;28;20107;-71
2023/07/30 05:36:54;;;;;;;26.88;4.28;;;;;;;;;;5224566;28;20021;-71
2023/07/30 05:39:26;;;;;;;27.80;3.80;;;;;;;;;;5224585;28;20033;-71
2023/07/30 05:41:56;;;;;;;23.75;3.53;;;;;;;;;;5216997;28;20092;-71
2023/07/30 05:44:26;;;;;;;25.20;4.15;;;;;;;;;;5219784;28;20143;-71
2023/07/30 05:46:56;;;;;;;23.33;3.58;;;;;;;;;;5223906;28;20020;-71
2023/07/30 05:49:27;;;;;;;24.70;3.78;;;;;;;;;;5224240;28;20021;-71
2023/07/30 05:51:57;;;;;;;23.73;3.88;;;;;;;;;;5224651;28;20528;-71
2023/07/30 05:54:27;;;;;;;28.05;3.97;;;;;;;;;;5223994;28;20086;-71
2023/07/30 05:56:58;;;;;;;25.52;4.35;;;;;;;;;;5224113;28;20025;-71
2023/07/30 05:59:28;;;;;;;23.63;3.75;;;;;;;;;;5224227;28;20020;-71
2023/07/30 06:02:01;;;;;;;22.63;3.78;;;;;;;;;;5224391;28;20121;-72
2023/07/30 06:04:32;;;;;;;23.17;3.97;;;;;;;;;;5224141;28;20435;-71
2023/07/30 06:07:02;;;;;;;28.80;4.68;;;;;;;;;;5223726;28;20100;-71
2023/07/30 06:09:32;;;;;;;23.92;4.15;;;;;;;;;;5224358;28;20103;-71
2023/07/30 06:12:03;;;;;;;21.55;3.47;;;;;;;;;;5223024;28;20013;-71
2023/07/30 06:14:33;;;;;;;18.40;3.45;;;;;;;;;;5224422;28;20017;-71
2023/07/30 06:17:03;;;;;;;29.33;4.80;;;;;;;;;;5223138;28;20021;-71
2023/07/30 06:19:34;;;;;;;20.38;3.10;;;;;;;;;;5224205;28;20021;-71
2023/07/30 06:22:04;;;;;;;23.65;3.47;;;;;;;;;;5223935;28;20036;-71
2023/07/30 06:24:34;;;;;;;22.65;4.13;;;;;;;;;;5223943;28;20021;-71
2023/07/30 06:27:05;;;;;;;30.95;4.82;;;;;;;;;;5223464;28;20025;-71
2023/07/30 06:29:36;;;;;;;24.58;4.22;;;;;;;;;;5223324;28;20036;-71
2023/07/30 06:32:06;;;;;;;23.60;3.95;;;;;;;;;;5224018;28;20020;-71
2023/07/30 06:34:36;;;;;;;23.63;4.30;;;;;;;;;;5223704;28;20020;-71
2023/07/30 06:37:07;;;;;;;20.20;3.30;;;;;;;;;;5223399;28;20048;-71
2023/07/30 06:39:37;;;;;;;25.75;5.00;;;;;;;;;;5224092;28;20482;-71
2023/07/30 06:42:08;;;;;;;27.98;4.90;;;;;;;;;;5223884;28;20060;-71
2023/07/30 06:44:38;;;;;;;21.88;3.63;;;;;;;;;;5219748;28;20016;-71
2023/07/30 06:47:09;;;;;;;24.95;3.47;;;;;;;;;;5208750;28;20017;-71
2023/07/30 06:49:39;;;;;;;25.20;4.40;;;;;;;;;;5221169;28;20032;-70
2023/07/30 06:52:09;;;;;;;24.83;4.80;;;;;;;;;;5222716;28;20025;-71
2023/07/30 06:54:39;;;;;;;32.17;4.47;;;;;;;;;;5222216;28;20477;-71
2023/07/30 06:57:10;;;;;;;18.88;3.90;;;;;;;;;;5221701;28;20021;-72
2023/07/30 06:59:40;;;;;;;19.98;4.28;;;;;;;;;;5222483;28;20100;-71
2023/07/30 07:02:10;;;;;;;23.60;3.63;;;;;;;;;;5222140;28;20056;-71
2023/07/30 07:04:41;;;;;;;23.77;3.83;;;;;;;;;;5222555;28;20143;-71
2023/07/30 07:07:11;;;;;;;24.00;3.63;;;;;;;;;;5221355;28;20310;-70
2023/07/30 07:09:41;;;;;;;15.35;3.63;;;;;;;;;;5222060;28;20070;-71
2023/07/30 07:12:11;;;;;;;23.88;3.65;;;;;;;;;;5221851;28;20368;-71
2023/07/30 07:14:43;;;;;;;19.38;4.00;;;;;;;;;;5222030;28;20289;-71
2023/07/30 07:17:13;;;;;;;25.70;3.60;;;;;;;;;;5221735;28;20090;-72
2023/07/30 07:19:44;;;;;;;20.73;3.10;;;;;;;;;;5221463;28;20497;-72
2023/07/30 07:22:14;;;;;;;18.88;3.17;;;;;;;;;;5221874;28;20340;-72
2023/07/30 07:24:45;;;;;;;25.30;3.40;;;;;;;;;;5222115;28;20455;-71
2023/07/30 07:27:15;;;;;;;29.92;3.90;;;;;;;;;;5221623;28;20233;-72
2023/07/30 07:29:46;;;;;;;19.98;4.00;;;;;;;;;;5221829;28;20033;-72
2023/07/30 07:32:16;;;;;;;20.02;3.40;;;;;;;;;;5221544;28;20028;-72
2023/07/30 07:34:47;;;;;;;17.50;3.28;;;;;;;;;;5221626;28;20017;-72
2023/07/30 07:37:18;;;;;;;14.18;2.92;;;;;;;;;;5221556;28;20063;-72
2023/07/30 07:39:48;;;;;;;19.83;3.72;;;;;;;;;;5221840;28;20063;-72
2023/07/30 07:42:19;;;;;;;17.02;3.78;;;;;;;;;;5221991;28;20032;-72
2023/07/30 07:44:49;;;;;;;14.73;3.25;;;;;;;;;;5221066;28;20398;-72
2023/07/30 07:47:20;;;;;;;16.20;3.60;;;;;;;;;;5221326;28;20032;-72
2023/07/30 07:49:50;;;;;;;27.50;4.05;;;;;;;;;;5221747;28;20017;-72
2023/07/30 07:52:20;;;;;;;22.95;3.83;;;;;;;;;;5221547;28;20204;-72
2023/07/30 07:54:50;;;;;;;21.27;3.45;;;;;;;;;;5221845;28;20238;-72
2023/07/30 07:57:21;;;;;;;19.55;3.00;;;;;;;;;;5221406;28;20375;-72
2023/07/30 07:59:51;;;;;;;21.92;3.63;;;;;;;;;;5221711;28;20081;-72
2023/07/30 08:02:21;;;;;;;12.38;3.20;;;;;;;;;;5221629;28;20025;-72
2023/07/30 08:04:52;;;;;;;20.60;3.97;;;;;;;;;;5221351;28;20033;-72
2023/07/30 08:07:22;;;;;;;19.30;2.35;;;;;;;;;;5220903;28;20514;-72
2023/07/30 08:09:54;;;;;;;15.77;3.28;;;;;;;;;;5221556;28;20483;-72
2023/07/30 08:12:25;;;;;;;17.77;3.22;;;;;;;;;;5224915;28;20017;-72
2023/07/30 08:14:56;;;;;;;14.63;3.25;;;;;;;;;;5225533;28;20024;-72
2023/07/30 08:18:44;;;;;;;17.25;3.53;;;;;;;20.82;100.00;101162.75;5241724;28;20164;-72
2023/07/30 08:21:17;;;;;;;15.45;2.30;;;;;;;20.47;100.00;101164.34;5241132;28;20098;-72
2023/07/30 08:23:47;;;;;;;19.35;3.45;;;;;;;19.85;100.00;101167.75;5240846;28;20035;-72
2023/07/30 08:26:18;;;;;;;18.85;2.75;;;;;;;19.41;100.00;101164.00;5239909;28;20477;-72
2023/07/30 08:28:48;;;;;;;20.58;4.38;;;;;;;19.46;100.00;101162.50;5240824;28;20025;-72
2023/07/30 08:31:19;;;;;;;19.05;3.42;;;;;;;19.59;100.00;101162.44;5240841;28;20024;-72
2023/07/30 08:33:49;;;;;;;18.25;2.90;;;;;;;19.83;100.00;101158.97;5239268;28;20232;-71
2023/07/30 08:36:20;;;;;;;18.70;3.38;;;;;;;20.06;100.00;101171.16;5239969;28;20025;-72
2023/07/30 08:38:51;;;;;;;10.68;2.50;;;;;;;20.15;100.00;101158.94;5243833;28;20098;-71
2023/07/30 08:41:21;;;;;;;14.60;2.88;;;;;;;19.97;100.00;101175.22;5240755;28;20039;-72
2023/07/30 08:43:52;;;;;;;15.18;2.88;;;;;;;20.08;100.00;101156.28;5240396;28;20086;-72
2023/07/30 08:46:23;;;;;;;14.82;3.50;;;;;;;20.01;100.00;101163.66;5239636;28;20020;-71
2023/07/30 08:48:54;;;;;;;8.50;2.53;;;;;;;19.87;100.00;101176.53;5240464;28;20554;-72
2023/07/30 08:51:26;;;;;;;12.55;2.40;;;;;;;19.88;100.00;101161.88;5238632;28;20024;-72
2023/07/30 08:53:57;;;;;;;12.20;2.65;;;;;;;19.83;100.00;101166.28;5241904;28;20021;-72
2023/07/30 08:56:30;;;;;;;18.23;2.67;;;;;;;19.96;100.00;101168.94;5240963;28;20474;-72
2023/07/30 08:59:02;;;;;;;13.50;2.85;;;;;;;20.29;100.00;101179.59;5241283;28;20025;-72
2023/07/30 09:01:38;;;;;;;10.77;2.53;;;;;;;20.44;100.00;101168.34;5241048;28;20495;-71
2023/07/30 09:04:09;;;;;;;16.08;2.83;;;;;;;20.39;100.00;101171.75;5240304;28;20020;-72
2023/07/30 09:06:40;;;;;;;13.32;2.65;;;;;;;20.56;100.00;101172.03;5239813;28;20025;-72
2023/07/30 09:09:11;;;;;;;15.45;2.13;;;;;;;20.52;100.00;101178.97;5240140;28;20481;-72
2023/07/30 09:11:42;;;;;;;10.77;2.22;;;;;;;20.18;100.00;101175.69;5238940;28;20083;-72
2023/07/30 09:14:12;;;;;;;10.23;2.15;;;;;;;20.11;100.00;101177.63;5239470;28;20013;-72
2023/07/30 09:16:46;;;;;;;19.15;2.53;;;;;;;20.03;100.00;101183.34;5237476;28;20036;-73
2023/07/30 09:19:17;;;;;;;8.95;2.08;;;;;;;20.01;100.00;101181.88;5239826;28;20045;-72
2023/07/30 09:21:48;;;;;;;8.02;1.38;;;;;;;19.79;100.00;101195.03;5239634;28;20060;-72
2023/07/30 09:24:32;;;;;;;8.88;1.73;;;;;;;19.37;100.00;101205.44;5238246;28;20051;-73
2023/07/30 09:27:03;;;;;;;4.75;1.17;;;;;;;19.09;100.00;101216.66;5238893;28;20104;-72
2023/07/30 09:29:33;;;;;;;7.25;1.40;;;;;;;18.97;100.00;101202.00;5228768;28;20100;-72
2023/07/30 09:32:07;;;;;;;7.03;1.67;;;;;;;18.88;100.00;101210.41;5224892;28;20028;-72
2023/07/30 09:34:45;;;;;;;3.63;1.10;;;;;;;18.80;100.00;101210.63;5225563;28;20091;-73
2023/07/30 09:37:16;;;;;;;7.60;1.15;;;;;;;18.57;100.00;101212.91;5224836;28;20083;-73
2023/07/30 09:39:48;;;;;;;4.55;0.90;;;;;;;18.74;100.00;101207.94;5224774;28;20025;-73
2023/07/30 09:42:19;;;;;;;5.03;1.70;;;;;;;18.79;100.00;101217.13;5224421;28;20033;-73
2023/07/30 09:44:50;;;;;;;2.63;1.00;;;;;;;18.98;100.00;101215.41;5222574;28;20028;-73
2023/07/30 09:47:21;;;;;;;7.18;1.13;;;;;;;19.27;100.00;101208.63;5224222;28;20029;-73
2023/07/30 09:49:53;;;;;;;3.88;1.20;;;;;;;19.30;100.00;101216.34;5224896;28;20025;-73
2023/07/30 09:52:23;;;;;;;8.77;1.55;;;;;;;19.47;100.00;101213.16;5225157;28;20028;-73
2023/07/30 09:54:56;;;;;;;9.70;1.40;;;;;;;19.37;100.00;101208.16;5224707;28;20031;-72
2023/07/30 09:57:26;;;;;;;6.38;1.33;;;;;;;19.24;100.00;101200.91;5223007;28;20033;-73
2023/07/30 09:59:57;;;;;;;9.43;1.83;;;;;;;19.30;100.00;101208.19;5224719;28;20032;-72
2023/07/30 10:02:31;;;;;;;7.22;1.92;;;;;;;19.30;100.00;101215.53;5224617;28;20114;-73
2023/07/30 10:05:07;;;;;;;8.82;2.38;;;;;;;19.22;100.00;101232.91;5224719;28;20035;-72
2023/07/30 10:07:42;;;;;;;7.22;1.90;;;;;;;19.04;100.00;101240.91;5223286;28;20025;-73
2023/07/30 10:10:13;;;;;;;10.07;1.98;;;;;;;18.80;100.00;101243.25;5224564;28;20021;-73
2023/07/30 10:12:44;;;;;;;13.02;1.80;;;;;;;18.83;100.00;101242.84;5224433;28;20025;-73
2023/07/30 10:15:19;;;;;;;13.43;2.13;;;;;;;18.83;100.00;101245.56;5224475;28;20043;-73
2023/07/30 10:17:51;;;;;;;9.27;2.13;;;;;;;18.75;100.00;101248.47;5237623;28;20612;-73
2023/07/30 10:20:38;;;;;;;8.93;2.25;;;;;;;18.93;100.00;101238.84;5245336;28;20074;-72
2023/07/30 10:23:08;;;;;;;9.90;2.50;;;;;;;19.02;100.00;101252.00;5244697;28;20094;-73
2023/07/30 10:25:56;;;;;;;11.50;2.75;;;;;;;19.27;100.00;101246.69;5244768;28;20500;-73
2023/07/30 10:28:43;;;;;;;7.65;2.38;;;;;;;19.38;100.00;101243.34;5245004;28;20021;-72
2023/07/30 10:31:15;;;;;;;7.65;1.85;;;;;;;19.42;100.00;101249.16;5226677;28;20024;-73
2023/07/30 10:33:45;;;;;;;11.43;2.03;;;;;;;19.87;100.00;101246.47;5226829;28;20064;-73
2023/07/30 10:36:27;;;;;;;7.20;2.05;;;;;;;20.41;100.00;101240.47;5244453;28;20056;-73
2023/07/30 10:39:10;;;;;;;7.15;2.20;;;;;;;20.97;100.00;101241.47;5227232;28;20484;-73
2023/07/30 10:41:43;;;;;;;6.93;1.80;;;;;;;21.51;100.00;101234.38;5243293;28;20059;-73
2023/07/30 10:44:27;;;;;;;11.52;2.42;;;;;;;21.43;100.00;101238.25;5244062;28;20031;-73
2023/07/30 10:46:59;;;;;;;10.35;2.25;;;;;;;21.29;100.00;101252.25;5243930;28;20081;-73
2023/07/30 10:49:37;;;;;;;14.55;2.22;;;;;;;21.26;100.00;101248.06;5244647;28;20024;-73
2023/07/30 10:52:07;;;;;;;9.05;1.90;;;;;;;20.97;100.00;101241.47;5244164;28;20028;-73
2023/07/30 10:54:38;;;;;;;10.57;2.08;;;;;;;20.80;100.00;101238.50;5243777;28;20389;-73
2023/07/30 10:57:08;;;;;;;12.95;2.67;;;;;;;20.74;100.00;101233.09;5243786;28;20025;-73
2023/07/30 10:59:41;;;;;;;12.68;2.30;;;;;;;20.91;100.00;101245.09;5226655;28;20439;-73
2023/07/30 11:02:13;;;;;;;15.93;2.85;;;;;;;21.40;100.00;101244.16;5244155;28;20078;-73
2023/07/30 11:04:43;;;;;;;11.98;2.35;;;;;;;21.87;100.00;101252.59;5243330;28;20024;-73
2023/07/30 11:07:18;;;;;;;12.02;1.95;;;;;;;22.05;100.00;101253.63;5243591;28;20016;-74
2023/07/30 11:10:00;;;;;;;9.75;2.42;;;;;;;21.96;100.00;101247.63;5226350;28;20020;-73
2023/07/30 11:12:31;;;;;;;11.48;2.00;;;;;;;21.89;100.00;101236.00;5226271;28;20048;-73
2023/07/30 11:15:03;;;;;;;9.88;1.90;;;;;;;21.56;100.00;101239.16;5209063;28;20478;-72
2023/07/30 11:17:34;;;;;;;11.25;2.22;;;;;;;21.61;100.00;101244.75;5243171;28;20039;-73
2023/07/30 11:20:05;;;;;;;12.43;1.77;;;;;;;22.09;100.00;101249.34;5244102;28;20107;-74
2023/07/30 11:22:36;;;;;;;9.93;1.92;;;;;;;22.34;100.00;101251.94;5226256;28;20025;-73
2023/07/30 11:25:16;;;;;;;13.63;2.30;;;;;;;22.95;100.00;101253.47;5243329;28;20032;-73
2023/07/30 11:27:47;;;;;;;7.95;1.98;;;;;;;23.16;100.00;101254.75;5225360;28;20024;-73
2023/07/30 11:30:19;;;;;;;8.52;2.00;;;;;;;22.77;100.00;101265.31;5226007;28;20021;-74
2023/07/30 11:32:49;;;;;;;10.15;1.98;;;;;;;22.50;100.00;101267.66;5243955;28;20477;-74
2023/07/30 11:35:20;;;;;;;12.75;1.75;;;;;;;22.11;100.00;101263.66;5243116;28;20025;-74
2023/07/30 11:37:51;;;;;;;11.43;1.50;;;;;;;21.91;100.00;101259.25;5242763;28;20029;-73
2023/07/30 11:40:22;;;;;;;11.00;2.03;;;;;;;22.00;100.00;101262.50;5243659;28;20102;-73
2023/07/30 11:42:52;;;;;;;9.25;2.05;;;;;;;21.95;100.00;101265.09;5225720;28;20024;-74
2023/07/30 11:45:23;;;;;;;5.45;1.15;;;;;;;22.05;100.00;101270.00;5242805;28;20420;-73
2023/07/30 11:48:08;;;;;;;7.25;1.55;;;;;;;21.68;100.00;101268.16;5243099;28;20021;-73
2023/07/30 11:50:53;;;;;;;11.23;1.63;;;;;;;22.15;100.00;101262.94;5243140;28;20423;-73
2023/07/30 11:53:49;;;;;;;14.73;2.33;;;;;;;22.33;100.00;101262.03;5241881;28;20031;-73
2023/07/30 11:56:24;;;;;;;7.95;1.77;;;;;;;22.11;100.00;101267.22;5242849;28;20047;-73
2023/07/30 11:58:58;;;;;;;8.88;1.63;;;;;;;21.45;100.00;101276.25;5242867;28;20025;-73
2023/07/30 12:01:31;;;;;;;7.00;1.55;;;;;;;21.59;100.00;101271.47;5225638;28;20396;-73
2023/07/30 12:04:05;;;;;;;11.43;2.63;;;;;;;21.88;100.00;101283.47;5243275;28;20298;-73
2023/07/30 12:06:54;;;;;;;13.10;1.83;;;;;;;22.11;100.00;101282.78;5241965;28;20025;-73
2023/07/30 12:09:26;;;;;;;9.80;1.83;;;;;;;22.37;100.00;101265.97;5237238;28;20071;-74
2023/07/30 12:11:59;;;;;;;6.80;1.80;;;;;;;22.74;100.00;101263.03;5243262;28;20099;-73
2023/07/30 12:14:48;;;;;;;6.05;1.80;;;;;;;23.14;100.00;101254.97;5242718;28;20036;-75
2023/07/30 12:17:19;;;;;;;6.78;1.60;;;;;;;23.17;100.00;101251.78;5242251;28;20032;-75
2023/07/30 12:19:49;;;;;;;8.30;1.45;;;;;;;23.23;100.00;101260.91;5242784;28;20094;-75
2023/07/30 12:22:20;;;;;;;9.50;1.40;;;;;;;23.40;100.00;101253.66;5243167;28;20485;-75
2023/07/30 12:24:50;;;;;;;10.48;2.40;;;;;;;23.24;100.00;101260.69;5242590;28;20020;-75
2023/07/30 12:27:21;;;;;;;6.80;1.33;;;;;;;23.38;100.00;101255.78;5242822;28;20028;-75
2023/07/30 12:29:51;;;;;;;7.85;1.45;;;;;;;23.52;100.00;101268.13;5240201;28;20519;-75
2023/07/30 12:32:22;;;;;;;6.28;1.15;;;;;;;23.70;100.00;101266.34;5232589;28;20067;-76
2023/07/30 12:34:53;;;;;;;5.10;1.33;;;;;;;23.91;100.00;101267.56;5241257;28;20032;-75
2023/07/30 12:37:32;;;;;;;7.00;1.40;;;;;;;23.90;100.00;101271.38;5240217;28;20036;-75
2023/07/30 12:40:25;;;;;;;3.88;0.85;;;;;;;24.20;100.00;101279.34;5228572;28;20021;-75
2023/07/30 12:43:10;;;;;;;7.28;1.65;;;;;;;24.26;100.00;101265.47;5242587;28;20097;-75
2023/07/30 12:45:57;;;;;;;6.35;1.45;;;;;;;24.07;100.00;101261.28;5253828;28;20092;-75
2023/07/30 12:48:52;;;;;;;6.13;1.10;;;;;;;23.86;100.00;101257.34;5256355;28;20032;-75
2023/07/30 12:51:44;;;;;;;6.10;1.60;;;;;;;24.02;100.00;101263.94;5241806;28;20025;-75
2023/07/30 12:54:39;;;;;;;12.73;1.58;;;;;;;23.91;100.00;101256.59;5243645;28;20081;-75
2023/07/30 12:57:35;;;;;;;7.30;1.75;;;;;;;23.84;100.00;101253.16;5240845;28;20489;-74
2023/07/30 13:00:17;;;;;;;15.45;1.15;;;;;;;23.76;100.00;101246.19;5229439;28;20440;-74
2023/07/30 13:03:06;;;;;;;8.95;1.33;;;;;;;23.63;100.00;101249.16;5238151;28;20017;-74
2023/07/30 13:05:56;;;;;;;10.02;1.10;;;;;;;23.62;100.00;101242.03;5226161;28;20412;-74
2023/07/30 13:08:59;;;;;;;7.85;1.48;;;;;;;23.39;100.00;101251.13;5238926;28;20016;-75
2023/07/30 13:11:36;;;;;;;6.90;1.70;;;;;;;23.69;100.00;101253.69;5141592;28;20046;-75
2023/07/30 13:14:26;;;;;;;8.45;1.63;;;;;;;23.98;100.00;101258.09;5137487;28;20034;-75
2023/07/30 13:17:19;;;;;;;6.78;1.42;;;;;;;23.97;100.00;101250.13;5220493;28;20401;-75
2023/07/30 13:20:13;;;;;;;7.57;1.70;;;;;;;24.11;100.00;101251.50;5228056;28;20494;-75
2023/07/30 13:22:58;;;;;;;7.63;1.48;;;;;;;24.22;100.00;101247.03;5250912;28;20508;-74
2023/07/30 13:25:37;;;;;;;6.15;1.25;;;;;;;24.17;100.00;101245.03;5253126;28;20133;-75
2023/07/30 13:28:10;;;;;;;4.13;1.20;;;;;;;24.19;100.00;101253.00;5228347;28;20021;-74
2023/07/30 13:31:19;;;;;;;7.97;1.73;;;;;;;23.85;100.00;101252.94;5249824;28;20374;-75